Genola, Minnesota
Current Conditions -  °F | °C
As of 8:57 AM on Thursday 30 Oct 2014 (Local Time) from KLXL Reporting Station
Overcast Overcast  
Wind Chill: 36°   Ceiling: 4200
Heat Index: 36°   Visibility: 10mi
Dew Point: 34°   Wind: 0mph
Humidity: 93%   Direction: NA
Pressure: 30.07"   Gusts: NA
Location:  46.0261°N, 94.0607°W
Report Text: KLXL 301357Z AUTO 00000KT 10SM OVC042 02/01 A3007 RMK AO2
Loading
Personal Weather Stations






























Interactive Weather Map
Tropical Storm Tracking
New forecast layout! Learn more

10-Day Weather Forecast

Advertisements
Track Severe Weather on mobile